<?xml version="1.0" encoding="UTF-8" standalone="no" ?>
<gpx xmlns="http://www.topografix.com/GPX/1/1" xmlns:xsi="http://www.w3.org/2001/XMLSchema-instance" xsi:schemaLocation="http://www.topografix.com/GPX/1/1 http://www.topografix.com/GPX/1/1/gpx.xsd" version="1.1" creator="VisuGPX - https://www.visugpx.com">
  <metadata>
    <name>Rando facile Ikéa </name>
    <desc><![CDATA[Parking Ikéa C1]]></desc>
  </metadata>
  <trk>
    <name><![CDATA[Tours]]></name>
    <trkseg>
      <trkpt lat="47.37428" lon="0.71762">
        <ele>99</ele>
        <time>2026-09-04T07:14:37.126Z</time>
      </trkpt>
      <trkpt lat="47.37428" lon="0.71762">
        <ele>99</ele>
        <time>2026-09-04T07:14:38.134Z</time>
      </trkpt>
      <trkpt lat="47.37422" lon="0.7175">
        <ele>99</ele>
        <time>2026-09-04T07:14:48.020Z</time>
      </trkpt>
      <trkpt lat="47.3742" lon="0.71736">
        <ele>99</ele>
        <time>2026-09-04T07:14:56.020Z</time>
      </trkpt>
      <trkpt lat="47.37417" lon="0.71722">
        <ele>99</ele>
        <time>2026-09-04T07:15:04.019Z</time>
      </trkpt>
      <trkpt lat="47.37416" lon="0.71709">
        <ele>100</ele>
        <time>2026-09-04T07:15:11.019Z</time>
      </trkpt>
      <trkpt lat="47.37413" lon="0.71696">
        <ele>100</ele>
        <time>2026-09-04T07:15:18.048Z</time>
      </trkpt>
      <trkpt lat="47.37413" lon="0.71696">
        <ele>100</ele>
        <time>2026-09-04T07:15:18.236Z</time>
      </trkpt>
      <trkpt lat="47.37413" lon="0.71697">
        <ele>101</ele>
        <time>2026-09-04T07:15:41.020Z</time>
      </trkpt>
      <trkpt lat="47.37413" lon="0.71697">
        <ele>101</ele>
        <time>2026-09-04T07:15:40.783Z</time>
      </trkpt>
      <trkpt lat="47.37411" lon="0.71683">
        <ele>102</ele>
        <time>2026-09-04T07:15:51.012Z</time>
      </trkpt>
      <trkpt lat="47.3741" lon="0.71668">
        <ele>102</ele>
        <time>2026-09-04T07:15:58.029Z</time>
      </trkpt>
      <trkpt lat="47.37407" lon="0.71653">
        <ele>102</ele>
        <time>2026-09-04T07:16:05.009Z</time>
      </trkpt>
      <trkpt lat="47.37405" lon="0.7164">
        <ele>103</ele>
        <time>2026-09-04T07:16:11.034Z</time>
      </trkpt>
      <trkpt lat="47.37406" lon="0.71627">
        <ele>103</ele>
        <time>2026-09-04T07:16:17.028Z</time>
      </trkpt>
      <trkpt lat="47.37404" lon="0.71613">
        <ele>103</ele>
        <time>2026-09-04T07:16:24.042Z</time>
      </trkpt>
      <trkpt lat="47.37404" lon="0.71598">
        <ele>104</ele>
        <time>2026-09-04T07:16:32.044Z</time>
      </trkpt>
      <trkpt lat="47.37401" lon="0.71584">
        <ele>104</ele>
        <time>2026-09-04T07:16:40.033Z</time>
      </trkpt>
      <trkpt lat="47.37404" lon="0.71569">
        <ele>104</ele>
        <time>2026-09-04T07:16:47.024Z</time>
      </trkpt>
      <trkpt lat="47.37404" lon="0.71555">
        <ele>104</ele>
        <time>2026-09-04T07:16:54.040Z</time>
      </trkpt>
      <trkpt lat="47.37401" lon="0.71541">
        <ele>103</ele>
        <time>2026-09-04T07:17:07.040Z</time>
      </trkpt>
      <trkpt lat="47.37403" lon="0.71526">
        <ele>103</ele>
        <time>2026-09-04T07:17:14.039Z</time>
      </trkpt>
      <trkpt lat="47.37403" lon="0.71512">
        <ele>103</ele>
        <time>2026-09-04T07:17:18.011Z</time>
      </trkpt>
      <trkpt lat="47.37402" lon="0.71498">
        <ele>103</ele>
        <time>2026-09-04T07:17:21.090Z</time>
      </trkpt>
      <trkpt lat="47.37402" lon="0.71484">
        <ele>102</ele>
        <time>2026-09-04T07:17:27.070Z</time>
      </trkpt>
      <trkpt lat="47.37402" lon="0.71469">
        <ele>101</ele>
        <time>2026-09-04T07:17:34.036Z</time>
      </trkpt>
      <trkpt lat="47.37403" lon="0.71454">
        <ele>100</ele>
        <time>2026-09-04T07:17:41.042Z</time>
      </trkpt>
      <trkpt lat="47.37404" lon="0.71439">
        <ele>100</ele>
        <time>2026-09-04T07:17:48.024Z</time>
      </trkpt>
      <trkpt lat="47.37403" lon="0.71424">
        <ele>99</ele>
        <time>2026-09-04T07:17:55.037Z</time>
      </trkpt>
      <trkpt lat="47.37403" lon="0.7141">
        <ele>99</ele>
        <time>2026-09-04T07:18:02.044Z</time>
      </trkpt>
      <trkpt lat="47.37404" lon="0.71396">
        <ele>98</ele>
        <time>2026-09-04T07:18:09.091Z</time>
      </trkpt>
      <trkpt lat="47.37404" lon="0.71382">
        <ele>98</ele>
        <time>2026-09-04T07:18:15.089Z</time>
      </trkpt>
      <trkpt lat="47.37404" lon="0.71369">
        <ele>98</ele>
        <time>2026-09-04T07:18:21.087Z</time>
      </trkpt>
      <trkpt lat="47.37404" lon="0.71354">
        <ele>98</ele>
        <time>2026-09-04T07:18:28.032Z</time>
      </trkpt>
      <trkpt lat="47.37404" lon="0.7134">
        <ele>98</ele>
        <time>2026-09-04T07:18:35.050Z</time>
      </trkpt>
      <trkpt lat="47.37403" lon="0.71324">
        <ele>98</ele>
        <time>2026-09-04T07:18:42.015Z</time>
      </trkpt>
      <trkpt lat="47.37402" lon="0.71311">
        <ele>98</ele>
        <time>2026-09-04T07:18:48.032Z</time>
      </trkpt>
      <trkpt lat="47.37404" lon="0.71297">
        <ele>97</ele>
        <time>2026-09-04T07:18:55.033Z</time>
      </trkpt>
      <trkpt lat="47.37404" lon="0.71282">
        <ele>97</ele>
        <time>2026-09-04T07:19:02.103Z</time>
      </trkpt>
      <trkpt lat="47.37404" lon="0.71267">
        <ele>97</ele>
        <time>2026-09-04T07:19:09.050Z</time>
      </trkpt>
      <trkpt lat="47.37402" lon="0.71252">
        <ele>96</ele>
        <time>2026-09-04T07:19:16.043Z</time>
      </trkpt>
      <trkpt lat="47.37401" lon="0.71239">
        <ele>96</ele>
        <time>2026-09-04T07:19:22.037Z</time>
      </trkpt>
      <trkpt lat="47.37401" lon="0.71224">
        <ele>95</ele>
        <time>2026-09-04T07:19:29.039Z</time>
      </trkpt>
      <trkpt lat="47.37401" lon="0.71211">
        <ele>95</ele>
        <time>2026-09-04T07:19:36.034Z</time>
      </trkpt>
      <trkpt lat="47.37401" lon="0.71196">
        <ele>95</ele>
        <time>2026-09-04T07:19:43.046Z</time>
      </trkpt>
      <trkpt lat="47.37402" lon="0.71183">
        <ele>95</ele>
        <time>2026-09-04T07:19:50.017Z</time>
      </trkpt>
      <trkpt lat="47.37402" lon="0.71169">
        <ele>94</ele>
        <time>2026-09-04T07:19:57.032Z</time>
      </trkpt>
      <trkpt lat="47.37401" lon="0.71155">
        <ele>95</ele>
        <time>2026-09-04T07:20:04.030Z</time>
      </trkpt>
      <trkpt lat="47.374" lon="0.71141">
        <ele>95</ele>
        <time>2026-09-04T07:20:11.033Z</time>
      </trkpt>
      <trkpt lat="47.37404" lon="0.71128">
        <ele>94</ele>
        <time>2026-09-04T07:20:19.034Z</time>
      </trkpt>
      <trkpt lat="47.37395" lon="0.71132">
        <ele>97</ele>
        <time>2026-09-04T07:20:46.035Z</time>
      </trkpt>
      <trkpt lat="47.37385" lon="0.71132">
        <ele>98</ele>
        <time>2026-09-04T07:20:53.030Z</time>
      </trkpt>
      <trkpt lat="47.37375" lon="0.71133">
        <ele>99</ele>
        <time>2026-09-04T07:21:00.103Z</time>
      </trkpt>
      <trkpt lat="47.37366" lon="0.71135">
        <ele>100</ele>
        <time>2026-09-04T07:21:07.034Z</time>
      </trkpt>
      <trkpt lat="47.37357" lon="0.71134">
        <ele>100</ele>
        <time>2026-09-04T07:21:14.031Z</time>
      </trkpt>
      <trkpt lat="47.37347" lon="0.71134">
        <ele>100</ele>
        <time>2026-09-04T07:21:21.037Z</time>
      </trkpt>
      <trkpt lat="47.37337" lon="0.71134">
        <ele>99</ele>
        <time>2026-09-04T07:21:28.036Z</time>
      </trkpt>
      <trkpt lat="47.37327" lon="0.71136">
        <ele>98</ele>
        <time>2026-09-04T07:21:35.032Z</time>
      </trkpt>
      <trkpt lat="47.37317" lon="0.71136">
        <ele>97</ele>
        <time>2026-09-04T07:21:42.090Z</time>
      </trkpt>
      <trkpt lat="47.37307" lon="0.71136">
        <ele>97</ele>
        <time>2026-09-04T07:21:49.016Z</time>
      </trkpt>
      <trkpt lat="47.37297" lon="0.71136">
        <ele>96</ele>
        <time>2026-09-04T07:21:56.045Z</time>
      </trkpt>
      <trkpt lat="47.37287" lon="0.71136">
        <ele>95</ele>
        <time>2026-09-04T07:22:03.042Z</time>
      </trkpt>
      <trkpt lat="47.37278" lon="0.71135">
        <ele>94</ele>
        <time>2026-09-04T07:22:10.032Z</time>
      </trkpt>
      <trkpt lat="47.37268" lon="0.71138">
        <ele>94</ele>
        <time>2026-09-04T07:22:17.035Z</time>
      </trkpt>
      <trkpt lat="47.37258" lon="0.71139">
        <ele>94</ele>
        <time>2026-09-04T07:22:24.032Z</time>
      </trkpt>
      <trkpt lat="47.37248" lon="0.71138">
        <ele>93</ele>
        <time>2026-09-04T07:22:31.034Z</time>
      </trkpt>
      <trkpt lat="47.37239" lon="0.71138">
        <ele>93</ele>
        <time>2026-09-04T07:22:38.043Z</time>
      </trkpt>
      <trkpt lat="47.37229" lon="0.71137">
        <ele>93</ele>
        <time>2026-09-04T07:22:45.031Z</time>
      </trkpt>
      <trkpt lat="47.3722" lon="0.71138">
        <ele>93</ele>
        <time>2026-09-04T07:22:52.040Z</time>
      </trkpt>
      <trkpt lat="47.3721" lon="0.71134">
        <ele>93</ele>
        <time>2026-09-04T07:22:59.090Z</time>
      </trkpt>
      <trkpt lat="47.37201" lon="0.71131">
        <ele>93</ele>
        <time>2026-09-04T07:23:05.092Z</time>
      </trkpt>
      <trkpt lat="47.37192" lon="0.71124">
        <ele>93</ele>
        <time>2026-09-04T07:23:12.031Z</time>
      </trkpt>
      <trkpt lat="47.37189" lon="0.7111">
        <ele>94</ele>
        <time>2026-09-04T07:23:19.033Z</time>
      </trkpt>
      <trkpt lat="47.37188" lon="0.71096">
        <ele>94</ele>
        <time>2026-09-04T07:23:25.032Z</time>
      </trkpt>
      <trkpt lat="47.37189" lon="0.71081">
        <ele>94</ele>
        <time>2026-09-04T07:23:32.032Z</time>
      </trkpt>
      <trkpt lat="47.37191" lon="0.71065">
        <ele>95</ele>
        <time>2026-09-04T07:23:39.031Z</time>
      </trkpt>
      <trkpt lat="47.37194" lon="0.71052">
        <ele>95</ele>
        <time>2026-09-04T07:23:46.090Z</time>
      </trkpt>
      <trkpt lat="47.37196" lon="0.71038">
        <ele>95</ele>
        <time>2026-09-04T07:23:52.082Z</time>
      </trkpt>
      <trkpt lat="47.37198" lon="0.71023">
        <ele>96</ele>
        <time>2026-09-04T07:23:59.043Z</time>
      </trkpt>
      <trkpt lat="47.37197" lon="0.71008">
        <ele>96</ele>
        <time>2026-09-04T07:24:06.045Z</time>
      </trkpt>
      <trkpt lat="47.37194" lon="0.70994">
        <ele>97</ele>
        <time>2026-09-04T07:24:13.033Z</time>
      </trkpt>
      <trkpt lat="47.3719" lon="0.70981">
        <ele>97</ele>
        <time>2026-09-04T07:24:20.030Z</time>
      </trkpt>
      <trkpt lat="47.37186" lon="0.70968">
        <ele>98</ele>
        <time>2026-09-04T07:24:27.037Z</time>
      </trkpt>
      <trkpt lat="47.3718" lon="0.70958">
        <ele>98</ele>
        <time>2026-09-04T07:24:34.089Z</time>
      </trkpt>
      <trkpt lat="47.37172" lon="0.7095">
        <ele>99</ele>
        <time>2026-09-04T07:24:41.032Z</time>
      </trkpt>
      <trkpt lat="47.37163" lon="0.70944">
        <ele>99</ele>
        <time>2026-09-04T07:24:49.028Z</time>
      </trkpt>
      <trkpt lat="47.37153" lon="0.70938">
        <ele>98</ele>
        <time>2026-09-04T07:24:56.033Z</time>
      </trkpt>
      <trkpt lat="47.37145" lon="0.70931">
        <ele>98</ele>
        <time>2026-09-04T07:25:02.039Z</time>
      </trkpt>
      <trkpt lat="47.37137" lon="0.70923">
        <ele>98</ele>
        <time>2026-09-04T07:25:09.037Z</time>
      </trkpt>
      <trkpt lat="47.37129" lon="0.70913">
        <ele>98</ele>
        <time>2026-09-04T07:25:16.101Z</time>
      </trkpt>
      <trkpt lat="47.37122" lon="0.70903">
        <ele>97</ele>
        <time>2026-09-04T07:25:23.034Z</time>
      </trkpt>
      <trkpt lat="47.37116" lon="0.70891">
        <ele>96</ele>
        <time>2026-09-04T07:25:30.034Z</time>
      </trkpt>
      <trkpt lat="47.37112" lon="0.70879">
        <ele>95</ele>
        <time>2026-09-04T07:25:36.033Z</time>
      </trkpt>
      <trkpt lat="47.37106" lon="0.70866">
        <ele>95</ele>
        <time>2026-09-04T07:25:43.039Z</time>
      </trkpt>
      <trkpt lat="47.37102" lon="0.70854">
        <ele>95</ele>
        <time>2026-09-04T07:25:49.034Z</time>
      </trkpt>
      <trkpt lat="47.37098" lon="0.70842">
        <ele>94</ele>
        <time>2026-09-04T07:25:55.033Z</time>
      </trkpt>
      <trkpt lat="47.37094" lon="0.70829">
        <ele>93</ele>
        <time>2026-09-04T07:26:02.042Z</time>
      </trkpt>
      <trkpt lat="47.37091" lon="0.70816">
        <ele>93</ele>
        <time>2026-09-04T07:26:08.033Z</time>
      </trkpt>
      <trkpt lat="47.37091" lon="0.70801">
        <ele>93</ele>
        <time>2026-09-04T07:26:14.035Z</time>
      </trkpt>
      <trkpt lat="47.37091" lon="0.70786">
        <ele>93</ele>
        <time>2026-09-04T07:26:21.034Z</time>
      </trkpt>
      <trkpt lat="47.37091" lon="0.70772">
        <ele>93</ele>
        <time>2026-09-04T07:26:27.047Z</time>
      </trkpt>
      <trkpt lat="47.37093" lon="0.70758">
        <ele>93</ele>
        <time>2026-09-04T07:26:34.088Z</time>
      </trkpt>
      <trkpt lat="47.37094" lon="0.70743">
        <ele>94</ele>
        <time>2026-09-04T07:26:41.047Z</time>
      </trkpt>
      <trkpt lat="47.37092" lon="0.7073">
        <ele>94</ele>
        <time>2026-09-04T07:26:48.089Z</time>
      </trkpt>
      <trkpt lat="47.37089" lon="0.70717">
        <ele>94</ele>
        <time>2026-09-04T07:26:54.094Z</time>
      </trkpt>
      <trkpt lat="47.37083" lon="0.70706">
        <ele>95</ele>
        <time>2026-09-04T07:27:01.047Z</time>
      </trkpt>
      <trkpt lat="47.37077" lon="0.70695">
        <ele>95</ele>
        <time>2026-09-04T07:27:08.031Z</time>
      </trkpt>
      <trkpt lat="47.3707" lon="0.70685">
        <ele>94</ele>
        <time>2026-09-04T07:27:14.037Z</time>
      </trkpt>
      <trkpt lat="47.37062" lon="0.70677">
        <ele>94</ele>
        <time>2026-09-04T07:27:21.034Z</time>
      </trkpt>
      <trkpt lat="47.37056" lon="0.70665">
        <ele>95</ele>
        <time>2026-09-04T07:27:29.079Z</time>
      </trkpt>
      <trkpt lat="47.37051" lon="0.70653">
        <ele>95</ele>
        <time>2026-09-04T07:27:36.032Z</time>
      </trkpt>
      <trkpt lat="47.37047" lon="0.70639">
        <ele>95</ele>
        <time>2026-09-04T07:27:43.035Z</time>
      </trkpt>
      <trkpt lat="47.37046" lon="0.70625">
        <ele>95</ele>
        <time>2026-09-04T07:27:49.024Z</time>
      </trkpt>
      <trkpt lat="47.37046" lon="0.7061">
        <ele>95</ele>
        <time>2026-09-04T07:27:56.045Z</time>
      </trkpt>
      <trkpt lat="47.37048" lon="0.70596">
        <ele>95</ele>
        <time>2026-09-04T07:28:03.037Z</time>
      </trkpt>
      <trkpt lat="47.37048" lon="0.70581">
        <ele>95</ele>
        <time>2026-09-04T07:28:10.045Z</time>
      </trkpt>
      <trkpt lat="47.37049" lon="0.70567">
        <ele>94</ele>
        <time>2026-09-04T07:28:16.041Z</time>
      </trkpt>
      <trkpt lat="47.37049" lon="0.70554">
        <ele>94</ele>
        <time>2026-09-04T07:28:22.049Z</time>
      </trkpt>
      <trkpt lat="47.3705" lon="0.70539">
        <ele>94</ele>
        <time>2026-09-04T07:28:29.079Z</time>
      </trkpt>
      <trkpt lat="47.37051" lon="0.70525">
        <ele>94</ele>
        <time>2026-09-04T07:28:36.047Z</time>
      </trkpt>
      <trkpt lat="47.3705" lon="0.70509">
        <ele>94</ele>
        <time>2026-09-04T07:28:43.034Z</time>
      </trkpt>
      <trkpt lat="47.37049" lon="0.70494">
        <ele>94</ele>
        <time>2026-09-04T07:28:50.046Z</time>
      </trkpt>
      <trkpt lat="47.37048" lon="0.70481">
        <ele>94</ele>
        <time>2026-09-04T07:28:56.047Z</time>
      </trkpt>
      <trkpt lat="47.37048" lon="0.70467">
        <ele>94</ele>
        <time>2026-09-04T07:29:03.027Z</time>
      </trkpt>
      <trkpt lat="47.37047" lon="0.70451">
        <ele>94</ele>
        <time>2026-09-04T07:29:10.090Z</time>
      </trkpt>
      <trkpt lat="47.37047" lon="0.70437">
        <ele>94</ele>
        <time>2026-09-04T07:29:16.099Z</time>
      </trkpt>
      <trkpt lat="47.37045" lon="0.70423">
        <ele>94</ele>
        <time>2026-09-04T07:29:23.027Z</time>
      </trkpt>
      <trkpt lat="47.37043" lon="0.70408">
        <ele>94</ele>
        <time>2026-09-04T07:29:30.022Z</time>
      </trkpt>
      <trkpt lat="47.37042" lon="0.70394">
        <ele>95</ele>
        <time>2026-09-04T07:29:37.014Z</time>
      </trkpt>
      <trkpt lat="47.37042" lon="0.70379">
        <ele>96</ele>
        <time>2026-09-04T07:29:44.013Z</time>
      </trkpt>
      <trkpt lat="47.37038" lon="0.70366">
        <ele>97</ele>
        <time>2026-09-04T07:29:52.081Z</time>
      </trkpt>
      <trkpt lat="47.37042" lon="0.70353">
        <ele>97</ele>
        <time>2026-09-04T07:29:57.023Z</time>
      </trkpt>
      <trkpt lat="47.37046" lon="0.7034">
        <ele>97</ele>
        <time>2026-09-04T07:30:03.026Z</time>
      </trkpt>
      <trkpt lat="47.37051" lon="0.70329">
        <ele>97</ele>
        <time>2026-09-04T07:30:09.041Z</time>
      </trkpt>
      <trkpt lat="47.37058" lon="0.70317">
        <ele>97</ele>
        <time>2026-09-04T07:30:16.111Z</time>
      </trkpt>
      <trkpt lat="47.37064" lon="0.70306">
        <ele>97</ele>
        <time>2026-09-04T07:30:24.040Z</time>
      </trkpt>
      <trkpt lat="47.37067" lon="0.70292">
        <ele>98</ele>
        <time>2026-09-04T07:30:32.037Z</time>
      </trkpt>
      <trkpt lat="47.37068" lon="0.70278">
        <ele>98</ele>
        <time>2026-09-04T07:30:40.096Z</time>
      </trkpt>
      <trkpt lat="47.37069" lon="0.70263">
        <ele>99</ele>
        <time>2026-09-04T07:30:47.057Z</time>
      </trkpt>
      <trkpt lat="47.37066" lon="0.70249">
        <ele>99</ele>
        <time>2026-09-04T07:30:53.041Z</time>
      </trkpt>
      <trkpt lat="47.37064" lon="0.70235">
        <ele>100</ele>
        <time>2026-09-04T07:31:00.033Z</time>
      </trkpt>
      <trkpt lat="47.37061" lon="0.70222">
        <ele>100</ele>
        <time>2026-09-04T07:31:06.047Z</time>
      </trkpt>
      <trkpt lat="47.37058" lon="0.70207">
        <ele>100</ele>
        <time>2026-09-04T07:31:13.037Z</time>
      </trkpt>
      <trkpt lat="47.37058" lon="0.70193">
        <ele>99</ele>
        <time>2026-09-04T07:31:19.050Z</time>
      </trkpt>
      <trkpt lat="47.3706" lon="0.70179">
        <ele>100</ele>
        <time>2026-09-04T07:31:26.046Z</time>
      </trkpt>
      <trkpt lat="47.37061" lon="0.70164">
        <ele>100</ele>
        <time>2026-09-04T07:31:34.106Z</time>
      </trkpt>
      <trkpt lat="47.37062" lon="0.7015">
        <ele>100</ele>
        <time>2026-09-04T07:31:40.112Z</time>
      </trkpt>
      <trkpt lat="47.37066" lon="0.70137">
        <ele>100</ele>
        <time>2026-09-04T07:31:47.036Z</time>
      </trkpt>
      <trkpt lat="47.3707" lon="0.70124">
        <ele>100</ele>
        <time>2026-09-04T07:31:53.030Z</time>
      </trkpt>
      <trkpt lat="47.37072" lon="0.70111">
        <ele>100</ele>
        <time>2026-09-04T07:31:59.047Z</time>
      </trkpt>
      <trkpt lat="47.37071" lon="0.70096">
        <ele>100</ele>
        <time>2026-09-04T07:32:05.057Z</time>
      </trkpt>
      <trkpt lat="47.37066" lon="0.70085">
        <ele>100</ele>
        <time>2026-09-04T07:32:12.045Z</time>
      </trkpt>
      <trkpt lat="47.37059" lon="0.70076">
        <ele>100</ele>
        <time>2026-09-04T07:32:19.044Z</time>
      </trkpt>
      <trkpt lat="47.37051" lon="0.70066">
        <ele>99</ele>
        <time>2026-09-04T07:32:26.033Z</time>
      </trkpt>
      <trkpt lat="47.37046" lon="0.70056">
        <ele>99</ele>
        <time>2026-09-04T07:32:33.036Z</time>
      </trkpt>
      <trkpt lat="47.37041" lon="0.70043">
        <ele>100</ele>
        <time>2026-09-04T07:32:39.034Z</time>
      </trkpt>
      <trkpt lat="47.37037" lon="0.7003">
        <ele>100</ele>
        <time>2026-09-04T07:32:46.031Z</time>
      </trkpt>
      <trkpt lat="47.37033" lon="0.70017">
        <ele>99</ele>
        <time>2026-09-04T07:32:53.023Z</time>
      </trkpt>
      <trkpt lat="47.37031" lon="0.70003">
        <ele>99</ele>
        <time>2026-09-04T07:33:00.034Z</time>
      </trkpt>
      <trkpt lat="47.37032" lon="0.69989">
        <ele>99</ele>
        <time>2026-09-04T07:33:11.032Z</time>
      </trkpt>
      <trkpt lat="47.37022" lon="0.6999">
        <ele>98</ele>
        <time>2026-09-04T07:33:25.092Z</time>
      </trkpt>
      <trkpt lat="47.37014" lon="0.69992">
        <ele>98</ele>
        <time>2026-09-04T07:33:32.032Z</time>
      </trkpt>
      <trkpt lat="47.37004" lon="0.69995">
        <ele>98</ele>
        <time>2026-09-04T07:33:39.032Z</time>
      </trkpt>
      <trkpt lat="47.36995" lon="0.69997">
        <ele>98</ele>
        <time>2026-09-04T07:33:46.037Z</time>
      </trkpt>
      <trkpt lat="47.36985" lon="0.69998">
        <ele>99</ele>
        <time>2026-09-04T07:33:53.036Z</time>
      </trkpt>
      <trkpt lat="47.36975" lon="0.69999">
        <ele>99</ele>
        <time>2026-09-04T07:34:00.040Z</time>
      </trkpt>
      <trkpt lat="47.36965" lon="0.70001">
        <ele>100</ele>
        <time>2026-09-04T07:34:07.085Z</time>
      </trkpt>
      <trkpt lat="47.36956" lon="0.70001">
        <ele>100</ele>
        <time>2026-09-04T07:34:14.038Z</time>
      </trkpt>
      <trkpt lat="47.36952" lon="0.69988">
        <ele>101</ele>
        <time>2026-09-04T07:34:21.043Z</time>
      </trkpt>
      <trkpt lat="47.36948" lon="0.69976">
        <ele>102</ele>
        <time>2026-09-04T07:34:27.034Z</time>
      </trkpt>
      <trkpt lat="47.36948" lon="0.69962">
        <ele>102</ele>
        <time>2026-09-04T07:34:33.036Z</time>
      </trkpt>
      <trkpt lat="47.3695" lon="0.69949">
        <ele>103</ele>
        <time>2026-09-04T07:34:39.022Z</time>
      </trkpt>
      <trkpt lat="47.36952" lon="0.69935">
        <ele>103</ele>
        <time>2026-09-04T07:34:46.033Z</time>
      </trkpt>
      <trkpt lat="47.36953" lon="0.6992">
        <ele>104</ele>
        <time>2026-09-04T07:34:53.033Z</time>
      </trkpt>
      <trkpt lat="47.3695" lon="0.69906">
        <ele>104</ele>
        <time>2026-09-04T07:34:59.052Z</time>
      </trkpt>
      <trkpt lat="47.36947" lon="0.69894">
        <ele>105</ele>
        <time>2026-09-04T07:35:06.082Z</time>
      </trkpt>
      <trkpt lat="47.36944" lon="0.69881">
        <ele>104</ele>
        <time>2026-09-04T07:35:13.031Z</time>
      </trkpt>
      <trkpt lat="47.36941" lon="0.69866">
        <ele>104</ele>
        <time>2026-09-04T07:35:20.033Z</time>
      </trkpt>
      <trkpt lat="47.3694" lon="0.69853">
        <ele>104</ele>
        <time>2026-09-04T07:35:25.042Z</time>
      </trkpt>
      <trkpt lat="47.36938" lon="0.69839">
        <ele>104</ele>
        <time>2026-09-04T07:35:32.035Z</time>
      </trkpt>
      <trkpt lat="47.36934" lon="0.69825">
        <ele>103</ele>
        <time>2026-09-04T07:35:39.051Z</time>
      </trkpt>
      <trkpt lat="47.3693" lon="0.69812">
        <ele>103</ele>
        <time>2026-09-04T07:35:45.046Z</time>
      </trkpt>
      <trkpt lat="47.36927" lon="0.69798">
        <ele>103</ele>
        <time>2026-09-04T07:35:52.029Z</time>
      </trkpt>
      <trkpt lat="47.36926" lon="0.69784">
        <ele>103</ele>
        <time>2026-09-04T07:35:59.096Z</time>
      </trkpt>
      <trkpt lat="47.36921" lon="0.69772">
        <ele>104</ele>
        <time>2026-09-04T07:36:07.033Z</time>
      </trkpt>
      <trkpt lat="47.36913" lon="0.6977">
        <ele>105</ele>
        <time>2026-09-04T07:36:21.033Z</time>
      </trkpt>
      <trkpt lat="47.36917" lon="0.69768">
        <ele>105</ele>
        <time>2026-09-04T07:36:24.032Z</time>
      </trkpt>
      <trkpt lat="47.36926" lon="0.6977">
        <ele>106</ele>
        <time>2026-09-04T07:36:31.041Z</time>
      </trkpt>
      <trkpt lat="47.36931" lon="0.69757">
        <ele>106</ele>
        <time>2026-09-04T07:36:39.033Z</time>
      </trkpt>
      <trkpt lat="47.3694" lon="0.69752">
        <ele>107</ele>
        <time>2026-09-04T07:36:49.020Z</time>
      </trkpt>
      <trkpt lat="47.36937" lon="0.69737">
        <ele>106</ele>
        <time>2026-09-04T07:37:12.031Z</time>
      </trkpt>
      <trkpt lat="47.36935" lon="0.69721">
        <ele>106</ele>
        <time>2026-09-04T07:37:17.031Z</time>
      </trkpt>
      <trkpt lat="47.36934" lon="0.69706">
        <ele>105</ele>
        <time>2026-09-04T07:37:23.036Z</time>
      </trkpt>
      <trkpt lat="47.36933" lon="0.69692">
        <ele>104</ele>
        <time>2026-09-04T07:37:29.028Z</time>
      </trkpt>
      <trkpt lat="47.36932" lon="0.69679">
        <ele>103</ele>
        <time>2026-09-04T07:37:35.031Z</time>
      </trkpt>
      <trkpt lat="47.3693" lon="0.69665">
        <ele>101</ele>
        <time>2026-09-04T07:37:42.034Z</time>
      </trkpt>
      <trkpt lat="47.36927" lon="0.69651">
        <ele>100</ele>
        <time>2026-09-04T07:37:48.011Z</time>
      </trkpt>
      <trkpt lat="47.36926" lon="0.69636">
        <ele>99</ele>
        <time>2026-09-04T07:37:55.032Z</time>
      </trkpt>
      <trkpt lat="47.36926" lon="0.69622">
        <ele>98</ele>
        <time>2026-09-04T07:38:02.034Z</time>
      </trkpt>
      <trkpt lat="47.36923" lon="0.69608">
        <ele>97</ele>
        <time>2026-09-04T07:38:09.043Z</time>
      </trkpt>
      <trkpt lat="47.36921" lon="0.69592">
        <ele>97</ele>
        <time>2026-09-04T07:38:16.033Z</time>
      </trkpt>
      <trkpt lat="47.36919" lon="0.69577">
        <ele>96</ele>
        <time>2026-09-04T07:38:23.051Z</time>
      </trkpt>
      <trkpt lat="47.3692" lon="0.69563">
        <ele>96</ele>
        <time>2026-09-04T07:38:30.031Z</time>
      </trkpt>
      <trkpt lat="47.36922" lon="0.69549">
        <ele>96</ele>
        <time>2026-09-04T07:38:37.051Z</time>
      </trkpt>
      <trkpt lat="47.36923" lon="0.69535">
        <ele>96</ele>
        <time>2026-09-04T07:38:44.006Z</time>
      </trkpt>
      <trkpt lat="47.36924" lon="0.6952">
        <ele>96</ele>
        <time>2026-09-04T07:38:51.037Z</time>
      </trkpt>
      <trkpt lat="47.36924" lon="0.69504">
        <ele>96</ele>
        <time>2026-09-04T07:38:57.037Z</time>
      </trkpt>
      <trkpt lat="47.36925" lon="0.6949">
        <ele>96</ele>
        <time>2026-09-04T07:39:03.048Z</time>
      </trkpt>
      <trkpt lat="47.36925" lon="0.69476">
        <ele>96</ele>
        <time>2026-09-04T07:39:09.055Z</time>
      </trkpt>
      <trkpt lat="47.36927" lon="0.69462">
        <ele>96</ele>
        <time>2026-09-04T07:39:15.047Z</time>
      </trkpt>
      <trkpt lat="47.36928" lon="0.69448">
        <ele>96</ele>
        <time>2026-09-04T07:39:22.045Z</time>
      </trkpt>
      <trkpt lat="47.36928" lon="0.69433">
        <ele>96</ele>
        <time>2026-09-04T07:39:29.008Z</time>
      </trkpt>
      <trkpt lat="47.36932" lon="0.6942">
        <ele>96</ele>
        <time>2026-09-04T07:39:36.093Z</time>
      </trkpt>
      <trkpt lat="47.36933" lon="0.69407">
        <ele>96</ele>
        <time>2026-09-04T07:39:43.041Z</time>
      </trkpt>
      <trkpt lat="47.36933" lon="0.69393">
        <ele>96</ele>
        <time>2026-09-04T07:39:49.052Z</time>
      </trkpt>
      <trkpt lat="47.36934" lon="0.69378">
        <ele>95</ele>
        <time>2026-09-04T07:39:56.037Z</time>
      </trkpt>
      <trkpt lat="47.36937" lon="0.69363">
        <ele>95</ele>
        <time>2026-09-04T07:40:03.045Z</time>
      </trkpt>
      <trkpt lat="47.36938" lon="0.69349">
        <ele>95</ele>
        <time>2026-09-04T07:40:11.050Z</time>
      </trkpt>
      <trkpt lat="47.36941" lon="0.69334">
        <ele>94</ele>
        <time>2026-09-04T07:40:20.031Z</time>
      </trkpt>
      <trkpt lat="47.36943" lon="0.6932">
        <ele>94</ele>
        <time>2026-09-04T07:40:27.035Z</time>
      </trkpt>
      <trkpt lat="47.36945" lon="0.69306">
        <ele>94</ele>
        <time>2026-09-04T07:40:34.033Z</time>
      </trkpt>
      <trkpt lat="47.36947" lon="0.69291">
        <ele>94</ele>
        <time>2026-09-04T07:40:41.114Z</time>
      </trkpt>
      <trkpt lat="47.36948" lon="0.69276">
        <ele>93</ele>
        <time>2026-09-04T07:40:48.059Z</time>
      </trkpt>
      <trkpt lat="47.3695" lon="0.69261">
        <ele>93</ele>
        <time>2026-09-04T07:40:55.052Z</time>
      </trkpt>
      <trkpt lat="47.36951" lon="0.69248">
        <ele>92</ele>
        <time>2026-09-04T07:41:02.049Z</time>
      </trkpt>
      <trkpt lat="47.36953" lon="0.69233">
        <ele>92</ele>
        <time>2026-09-04T07:41:10.120Z</time>
      </trkpt>
      <trkpt lat="47.36955" lon="0.69219">
        <ele>92</ele>
        <time>2026-09-04T07:41:17.035Z</time>
      </trkpt>
      <trkpt lat="47.36958" lon="0.69205">
        <ele>93</ele>
        <time>2026-09-04T07:41:24.030Z</time>
      </trkpt>
      <trkpt lat="47.36961" lon="0.69191">
        <ele>93</ele>
        <time>2026-09-04T07:41:31.032Z</time>
      </trkpt>
      <trkpt lat="47.36962" lon="0.69176">
        <ele>94</ele>
        <time>2026-09-04T07:41:39.035Z</time>
      </trkpt>
      <trkpt lat="47.36963" lon="0.69163">
        <ele>95</ele>
        <time>2026-09-04T07:41:46.111Z</time>
      </trkpt>
      <trkpt lat="47.36955" lon="0.69157">
        <ele>96</ele>
        <time>2026-09-04T07:42:05.034Z</time>
      </trkpt>
      <trkpt lat="47.36955" lon="0.69154">
        <ele>96</ele>
        <time>2026-09-04T07:42:12.030Z</time>
      </trkpt>
      <trkpt lat="47.36955" lon="0.69148">
        <ele>97</ele>
        <time>2026-09-04T07:42:16.019Z</time>
      </trkpt>
      <trkpt lat="47.36958" lon="0.69135">
        <ele>97</ele>
        <time>2026-09-04T07:42:23.030Z</time>
      </trkpt>
      <trkpt lat="47.3696" lon="0.69121">
        <ele>98</ele>
        <time>2026-09-04T07:42:31.032Z</time>
      </trkpt>
      <trkpt lat="47.3696" lon="0.69105">
        <ele>98</ele>
        <time>2026-09-04T07:42:38.036Z</time>
      </trkpt>
      <trkpt lat="47.36961" lon="0.69091">
        <ele>98</ele>
        <time>2026-09-04T07:42:45.034Z</time>
      </trkpt>
      <trkpt lat="47.36961" lon="0.69077">
        <ele>98</ele>
        <time>2026-09-04T07:42:52.049Z</time>
      </trkpt>
      <trkpt lat="47.36962" lon="0.69064">
        <ele>99</ele>
        <time>2026-09-04T07:43:00.036Z</time>
      </trkpt>
      <trkpt lat="47.36957" lon="0.69052">
        <ele>99</ele>
        <time>2026-09-04T07:43:14.034Z</time>
      </trkpt>
      <trkpt lat="47.36953" lon="0.69052">
        <ele>99</ele>
        <time>2026-09-04T07:43:24.046Z</time>
      </trkpt>
      <trkpt lat="47.3695" lon="0.69051">
        <ele>99</ele>
        <time>2026-09-04T07:43:33.037Z</time>
      </trkpt>
      <trkpt lat="47.36945" lon="0.6904">
        <ele>98</ele>
        <time>2026-09-04T07:43:47.028Z</time>
      </trkpt>
      <trkpt lat="47.36954" lon="0.69031">
        <ele>97</ele>
        <time>2026-09-04T07:43:56.036Z</time>
      </trkpt>
      <trkpt lat="47.36957" lon="0.69017">
        <ele>96</ele>
        <time>2026-09-04T07:44:05.015Z</time>
      </trkpt>
      <trkpt lat="47.36957" lon="0.69002">
        <ele>95</ele>
        <time>2026-09-04T07:44:11.032Z</time>
      </trkpt>
      <trkpt lat="47.36958" lon="0.68987">
        <ele>95</ele>
        <time>2026-09-04T07:44:18.094Z</time>
      </trkpt>
      <trkpt lat="47.36959" lon="0.68973">
        <ele>94</ele>
        <time>2026-09-04T07:44:25.048Z</time>
      </trkpt>
      <trkpt lat="47.36962" lon="0.68959">
        <ele>94</ele>
        <time>2026-09-04T07:44:32.041Z</time>
      </trkpt>
      <trkpt lat="47.36964" lon="0.68945">
        <ele>94</ele>
        <time>2026-09-04T07:44:39.043Z</time>
      </trkpt>
      <trkpt lat="47.36965" lon="0.68931">
        <ele>94</ele>
        <time>2026-09-04T07:44:45.049Z</time>
      </trkpt>
      <trkpt lat="47.36966" lon="0.68917">
        <ele>94</ele>
        <time>2026-09-04T07:44:51.052Z</time>
      </trkpt>
      <trkpt lat="47.36969" lon="0.68903">
        <ele>94</ele>
        <time>2026-09-04T07:44:58.033Z</time>
      </trkpt>
      <trkpt lat="47.36971" lon="0.6889">
        <ele>95</ele>
        <time>2026-09-04T07:45:04.097Z</time>
      </trkpt>
      <trkpt lat="47.36972" lon="0.68875">
        <ele>95</ele>
        <time>2026-09-04T07:45:10.086Z</time>
      </trkpt>
      <trkpt lat="47.36975" lon="0.68861">
        <ele>95</ele>
        <time>2026-09-04T07:45:17.051Z</time>
      </trkpt>
      <trkpt lat="47.36976" lon="0.68846">
        <ele>95</ele>
        <time>2026-09-04T07:45:25.049Z</time>
      </trkpt>
      <trkpt lat="47.36969" lon="0.68837">
        <ele>96</ele>
        <time>2026-09-04T07:45:32.019Z</time>
      </trkpt>
      <trkpt lat="47.3696" lon="0.68833">
        <ele>96</ele>
        <time>2026-09-04T07:45:38.014Z</time>
      </trkpt>
      <trkpt lat="47.3695" lon="0.6883">
        <ele>96</ele>
        <time>2026-09-04T07:45:45.072Z</time>
      </trkpt>
      <trkpt lat="47.3694" lon="0.6883">
        <ele>96</ele>
        <time>2026-09-04T07:45:51.067Z</time>
      </trkpt>
      <trkpt lat="47.36932" lon="0.68825">
        <ele>96</ele>
        <time>2026-09-04T07:45:57.082Z</time>
      </trkpt>
      <trkpt lat="47.36924" lon="0.68819">
        <ele>96</ele>
        <time>2026-09-04T07:46:03.070Z</time>
      </trkpt>
      <trkpt lat="47.36915" lon="0.68814">
        <ele>96</ele>
        <time>2026-09-04T07:46:10.027Z</time>
      </trkpt>
      <trkpt lat="47.36907" lon="0.68805">
        <ele>95</ele>
        <time>2026-09-04T07:46:17.030Z</time>
      </trkpt>
      <trkpt lat="47.36899" lon="0.68799">
        <ele>95</ele>
        <time>2026-09-04T07:46:23.030Z</time>
      </trkpt>
      <trkpt lat="47.3689" lon="0.68792">
        <ele>94</ele>
        <time>2026-09-04T07:46:30.033Z</time>
      </trkpt>
      <trkpt lat="47.3688" lon="0.68786">
        <ele>93</ele>
        <time>2026-09-04T07:46:37.099Z</time>
      </trkpt>
      <trkpt lat="47.36871" lon="0.68781">
        <ele>93</ele>
        <time>2026-09-04T07:46:44.039Z</time>
      </trkpt>
      <trkpt lat="47.36861" lon="0.68777">
        <ele>92</ele>
        <time>2026-09-04T07:46:51.033Z</time>
      </trkpt>
      <trkpt lat="47.36852" lon="0.68772">
        <ele>92</ele>
        <time>2026-09-04T07:46:58.026Z</time>
      </trkpt>
      <trkpt lat="47.36843" lon="0.68769">
        <ele>91</ele>
        <time>2026-09-04T07:47:05.088Z</time>
      </trkpt>
      <trkpt lat="47.36833" lon="0.68764">
        <ele>91</ele>
        <time>2026-09-04T07:47:12.032Z</time>
      </trkpt>
      <trkpt lat="47.36824" lon="0.68759">
        <ele>91</ele>
        <time>2026-09-04T07:47:19.030Z</time>
      </trkpt>
      <trkpt lat="47.36815" lon="0.68754">
        <ele>91</ele>
        <time>2026-09-04T07:47:26.035Z</time>
      </trkpt>
      <trkpt lat="47.36806" lon="0.68752">
        <ele>92</ele>
        <time>2026-09-04T07:47:33.036Z</time>
      </trkpt>
      <trkpt lat="47.36797" lon="0.68754">
        <ele>92</ele>
        <time>2026-09-04T07:47:40.021Z</time>
      </trkpt>
      <trkpt lat="47.36788" lon="0.68754">
        <ele>92</ele>
        <time>2026-09-04T07:47:47.037Z</time>
      </trkpt>
      <trkpt lat="47.36778" lon="0.68751">
        <ele>92</ele>
        <time>2026-09-04T07:47:54.036Z</time>
      </trkpt>
      <trkpt lat="47.36769" lon="0.68747">
        <ele>93</ele>
        <time>2026-09-04T07:48:01.035Z</time>
      </trkpt>
      <trkpt lat="47.3676" lon="0.68741">
        <ele>94</ele>
        <time>2026-09-04T07:48:08.094Z</time>
      </trkpt>
      <trkpt lat="47.36752" lon="0.68734">
        <ele>94</ele>
        <time>2026-09-04T07:48:15.037Z</time>
      </trkpt>
      <trkpt lat="47.36744" lon="0.68727">
        <ele>95</ele>
        <time>2026-09-04T07:48:22.038Z</time>
      </trkpt>
      <trkpt lat="47.36735" lon="0.68721">
        <ele>96</ele>
        <time>2026-09-04T07:48:29.036Z</time>
      </trkpt>
      <trkpt lat="47.36726" lon="0.68717">
        <ele>96</ele>
        <time>2026-09-04T07:48:36.032Z</time>
      </trkpt>
      <trkpt lat="47.36717" lon="0.68714">
        <ele>97</ele>
        <time>2026-09-04T07:48:43.027Z</time>
      </trkpt>
      <trkpt lat="47.36707" lon="0.68711">
        <ele>97</ele>
        <time>2026-09-04T07:48:50.017Z</time>
      </trkpt>
      <trkpt lat="47.36698" lon="0.6871">
        <ele>98</ele>
        <time>2026-09-04T07:48:57.038Z</time>
      </trkpt>
      <trkpt lat="47.36688" lon="0.68712">
        <ele>97</ele>
        <time>2026-09-04T07:49:04.031Z</time>
      </trkpt>
      <trkpt lat="47.36678" lon="0.68713">
        <ele>97</ele>
        <time>2026-09-04T07:49:11.032Z</time>
      </trkpt>
      <trkpt lat="47.36668" lon="0.68714">
        <ele>96</ele>
        <time>2026-09-04T07:49:18.039Z</time>
      </trkpt>
      <trkpt lat="47.36658" lon="0.68715">
        <ele>95</ele>
        <time>2026-09-04T07:49:25.024Z</time>
      </trkpt>
      <trkpt lat="47.36649" lon="0.68716">
        <ele>94</ele>
        <time>2026-09-04T07:49:32.033Z</time>
      </trkpt>
      <trkpt lat="47.36639" lon="0.68718">
        <ele>94</ele>
        <time>2026-09-04T07:49:39.102Z</time>
      </trkpt>
      <trkpt lat="47.36629" lon="0.68722">
        <ele>93</ele>
        <time>2026-09-04T07:49:46.024Z</time>
      </trkpt>
      <trkpt lat="47.36619" lon="0.68728">
        <ele>93</ele>
        <time>2026-09-04T07:49:53.040Z</time>
      </trkpt>
      <trkpt lat="47.36611" lon="0.68735">
        <ele>94</ele>
        <time>2026-09-04T07:50:00.039Z</time>
      </trkpt>
      <trkpt lat="47.36601" lon="0.68741">
        <ele>94</ele>
        <time>2026-09-04T07:50:07.031Z</time>
      </trkpt>
      <trkpt lat="47.36593" lon="0.68748">
        <ele>94</ele>
        <time>2026-09-04T07:50:14.049Z</time>
      </trkpt>
      <trkpt lat="47.36585" lon="0.68756">
        <ele>95</ele>
        <time>2026-09-04T07:50:21.040Z</time>
      </trkpt>
      <trkpt lat="47.36576" lon="0.68764">
        <ele>95</ele>
        <time>2026-09-04T07:50:28.029Z</time>
      </trkpt>
      <trkpt lat="47.36569" lon="0.68771">
        <ele>96</ele>
        <time>2026-09-04T07:50:34.038Z</time>
      </trkpt>
      <trkpt lat="47.36562" lon="0.68781">
        <ele>96</ele>
        <time>2026-09-04T07:50:40.033Z</time>
      </trkpt>
      <trkpt lat="47.36554" lon="0.68789">
        <ele>97</ele>
        <time>2026-09-04T07:50:47.034Z</time>
      </trkpt>
      <trkpt lat="47.36547" lon="0.68798">
        <ele>97</ele>
        <time>2026-09-04T07:50:53.035Z</time>
      </trkpt>
      <trkpt lat="47.3654" lon="0.68807">
        <ele>97</ele>
        <time>2026-09-04T07:51:00.093Z</time>
      </trkpt>
      <trkpt lat="47.3653" lon="0.68812">
        <ele>97</ele>
        <time>2026-09-04T07:51:08.038Z</time>
      </trkpt>
      <trkpt lat="47.36522" lon="0.68805">
        <ele>96</ele>
        <time>2026-09-04T07:51:18.030Z</time>
      </trkpt>
      <trkpt lat="47.36512" lon="0.68799">
        <ele>91</ele>
        <time>2026-09-04T07:51:27.036Z</time>
      </trkpt>
      <trkpt lat="47.36505" lon="0.68791">
        <ele>84</ele>
        <time>2026-09-04T07:51:35.096Z</time>
      </trkpt>
      <trkpt lat="47.36496" lon="0.68786">
        <ele>66</ele>
        <time>2026-09-04T07:51:49.009Z</time>
      </trkpt>
      <trkpt lat="47.36489" lon="0.68796">
        <ele>57</ele>
        <time>2026-09-04T07:51:55.037Z</time>
      </trkpt>
      <trkpt lat="47.36482" lon="0.68804">
        <ele>46</ele>
        <time>2026-09-04T07:52:02.011Z</time>
      </trkpt>
      <trkpt lat="47.36475" lon="0.68813">
        <ele>35</ele>
        <time>2026-09-04T07:52:09.032Z</time>
      </trkpt>
      <trkpt lat="47.36472" lon="0.68827">
        <ele>28</ele>
        <time>2026-09-04T07:52:14.036Z</time>
      </trkpt>
      <trkpt lat="47.36467" lon="0.6884">
        <ele>20</ele>
        <time>2026-09-04T07:52:21.036Z</time>
      </trkpt>
      <trkpt lat="47.36462" lon="0.68851">
        <ele>16</ele>
        <time>2026-09-04T07:52:26.034Z</time>
      </trkpt>
      <trkpt lat="47.36459" lon="0.68865">
        <ele>12</ele>
        <time>2026-09-04T07:52:31.035Z</time>
      </trkpt>
      <trkpt lat="47.36456" lon="0.68878">
        <ele>9</ele>
        <time>2026-09-04T07:52:36.037Z</time>
      </trkpt>
      <trkpt lat="47.36453" lon="0.68891">
        <ele>7</ele>
        <time>2026-09-04T07:52:41.035Z</time>
      </trkpt>
      <trkpt lat="47.3645" lon="0.68905">
        <ele>6</ele>
        <time>2026-09-04T07:52:46.059Z</time>
      </trkpt>
      <trkpt lat="47.36449" lon="0.68919">
        <ele>6</ele>
        <time>2026-09-04T07:52:51.093Z</time>
      </trkpt>
      <trkpt lat="47.36448" lon="0.68934">
        <ele>6</ele>
        <time>2026-09-04T07:52:56.038Z</time>
      </trkpt>
      <trkpt lat="47.36447" lon="0.68949">
        <ele>7</ele>
        <time>2026-09-04T07:53:01.042Z</time>
      </trkpt>
      <trkpt lat="47.36447" lon="0.68964">
        <ele>8</ele>
        <time>2026-09-04T07:53:06.035Z</time>
      </trkpt>
      <trkpt lat="47.36446" lon="0.68979">
        <ele>10</ele>
        <time>2026-09-04T07:53:11.036Z</time>
      </trkpt>
      <trkpt lat="47.36447" lon="0.68994">
        <ele>11</ele>
        <time>2026-09-04T07:53:16.051Z</time>
      </trkpt>
      <trkpt lat="47.36447" lon="0.6901">
        <ele>13</ele>
        <time>2026-09-04T07:53:21.100Z</time>
      </trkpt>
      <trkpt lat="47.36449" lon="0.69025">
        <ele>14</ele>
        <time>2026-09-04T07:53:26.038Z</time>
      </trkpt>
      <trkpt lat="47.36452" lon="0.69039">
        <ele>15</ele>
        <time>2026-09-04T07:53:30.030Z</time>
      </trkpt>
      <trkpt lat="47.36455" lon="0.69053">
        <ele>17</ele>
        <time>2026-09-04T07:53:34.052Z</time>
      </trkpt>
      <trkpt lat="47.3646" lon="0.69067">
        <ele>18</ele>
        <time>2026-09-04T07:53:38.083Z</time>
      </trkpt>
      <trkpt lat="47.36464" lon="0.6908">
        <ele>20</ele>
        <time>2026-09-04T07:53:42.033Z</time>
      </trkpt>
      <trkpt lat="47.36469" lon="0.69092">
        <ele>21</ele>
        <time>2026-09-04T07:53:45.039Z</time>
      </trkpt>
      <trkpt lat="47.36475" lon="0.69104">
        <ele>23</ele>
        <time>2026-09-04T07:53:48.033Z</time>
      </trkpt>
      <trkpt lat="47.36482" lon="0.69119">
        <ele>25</ele>
        <time>2026-09-04T07:53:52.033Z</time>
      </trkpt>
      <trkpt lat="47.36488" lon="0.69134">
        <ele>28</ele>
        <time>2026-09-04T07:53:56.038Z</time>
      </trkpt>
      <trkpt lat="47.36497" lon="0.6915">
        <ele>32</ele>
        <time>2026-09-04T07:54:01.093Z</time>
      </trkpt>
      <trkpt lat="47.36502" lon="0.69162">
        <ele>36</ele>
        <time>2026-09-04T07:54:05.030Z</time>
      </trkpt>
      <trkpt lat="47.36508" lon="0.69172">
        <ele>39</ele>
        <time>2026-09-04T07:54:09.032Z</time>
      </trkpt>
      <trkpt lat="47.36515" lon="0.69184">
        <ele>44</ele>
        <time>2026-09-04T07:54:14.036Z</time>
      </trkpt>
      <trkpt lat="47.36521" lon="0.69195">
        <ele>47</ele>
        <time>2026-09-04T07:54:18.035Z</time>
      </trkpt>
      <trkpt lat="47.36527" lon="0.69206">
        <ele>52</ele>
        <time>2026-09-04T07:54:23.035Z</time>
      </trkpt>
      <trkpt lat="47.36534" lon="0.69218">
        <ele>57</ele>
        <time>2026-09-04T07:54:29.035Z</time>
      </trkpt>
      <trkpt lat="47.36539" lon="0.69229">
        <ele>61</ele>
        <time>2026-09-04T07:54:35.036Z</time>
      </trkpt>
      <trkpt lat="47.36546" lon="0.69242">
        <ele>65</ele>
        <time>2026-09-04T07:54:41.033Z</time>
      </trkpt>
      <trkpt lat="47.36552" lon="0.69252">
        <ele>66</ele>
        <time>2026-09-04T07:54:46.036Z</time>
      </trkpt>
      <trkpt lat="47.36556" lon="0.69264">
        <ele>69</ele>
        <time>2026-09-04T07:54:52.037Z</time>
      </trkpt>
      <trkpt lat="47.3656" lon="0.69278">
        <ele>72</ele>
        <time>2026-09-04T07:54:59.035Z</time>
      </trkpt>
      <trkpt lat="47.36564" lon="0.69291">
        <ele>74</ele>
        <time>2026-09-04T07:55:05.034Z</time>
      </trkpt>
      <trkpt lat="47.36569" lon="0.69303">
        <ele>77</ele>
        <time>2026-09-04T07:55:12.092Z</time>
      </trkpt>
      <trkpt lat="47.36572" lon="0.69317">
        <ele>79</ele>
        <time>2026-09-04T07:55:19.035Z</time>
      </trkpt>
      <trkpt lat="47.36574" lon="0.69331">
        <ele>82</ele>
        <time>2026-09-04T07:55:26.035Z</time>
      </trkpt>
      <trkpt lat="47.36577" lon="0.69346">
        <ele>84</ele>
        <time>2026-09-04T07:55:33.029Z</time>
      </trkpt>
      <trkpt lat="47.36578" lon="0.69361">
        <ele>86</ele>
        <time>2026-09-04T07:55:40.037Z</time>
      </trkpt>
      <trkpt lat="47.36581" lon="0.69376">
        <ele>88</ele>
        <time>2026-09-04T07:55:47.099Z</time>
      </trkpt>
      <trkpt lat="47.36584" lon="0.69389">
        <ele>89</ele>
        <time>2026-09-04T07:55:53.092Z</time>
      </trkpt>
      <trkpt lat="47.36588" lon="0.69403">
        <ele>90</ele>
        <time>2026-09-04T07:56:00.038Z</time>
      </trkpt>
      <trkpt lat="47.36593" lon="0.69415">
        <ele>90</ele>
        <time>2026-09-04T07:56:07.036Z</time>
      </trkpt>
      <trkpt lat="47.36596" lon="0.69428">
        <ele>90</ele>
        <time>2026-09-04T07:56:14.040Z</time>
      </trkpt>
      <trkpt lat="47.36599" lon="0.69441">
        <ele>90</ele>
        <time>2026-09-04T07:56:21.034Z</time>
      </trkpt>
      <trkpt lat="47.36601" lon="0.69455">
        <ele>89</ele>
        <time>2026-09-04T07:56:28.099Z</time>
      </trkpt>
      <trkpt lat="47.36604" lon="0.69469">
        <ele>89</ele>
        <time>2026-09-04T07:56:35.032Z</time>
      </trkpt>
      <trkpt lat="47.36606" lon="0.69484">
        <ele>88</ele>
        <time>2026-09-04T07:56:42.031Z</time>
      </trkpt>
      <trkpt lat="47.36609" lon="0.69498">
        <ele>88</ele>
        <time>2026-09-04T07:56:49.025Z</time>
      </trkpt>
      <trkpt lat="47.36611" lon="0.69511">
        <ele>88</ele>
        <time>2026-09-04T07:56:55.010Z</time>
      </trkpt>
      <trkpt lat="47.36613" lon="0.69525">
        <ele>88</ele>
        <time>2026-09-04T07:57:02.035Z</time>
      </trkpt>
      <trkpt lat="47.36616" lon="0.69539">
        <ele>89</ele>
        <time>2026-09-04T07:57:09.033Z</time>
      </trkpt>
      <trkpt lat="47.36621" lon="0.69554">
        <ele>89</ele>
        <time>2026-09-04T07:57:16.101Z</time>
      </trkpt>
      <trkpt lat="47.36625" lon="0.69568">
        <ele>89</ele>
        <time>2026-09-04T07:57:23.036Z</time>
      </trkpt>
      <trkpt lat="47.36628" lon="0.69582">
        <ele>90</ele>
        <time>2026-09-04T07:57:30.033Z</time>
      </trkpt>
      <trkpt lat="47.36632" lon="0.69595">
        <ele>90</ele>
        <time>2026-09-04T07:57:37.035Z</time>
      </trkpt>
      <trkpt lat="47.36635" lon="0.6961">
        <ele>91</ele>
        <time>2026-09-04T07:57:44.038Z</time>
      </trkpt>
      <trkpt lat="47.36637" lon="0.69623">
        <ele>90</ele>
        <time>2026-09-04T07:57:50.038Z</time>
      </trkpt>
      <trkpt lat="47.36641" lon="0.69636">
        <ele>90</ele>
        <time>2026-09-04T07:57:57.036Z</time>
      </trkpt>
      <trkpt lat="47.36643" lon="0.69649">
        <ele>90</ele>
        <time>2026-09-04T07:58:04.096Z</time>
      </trkpt>
      <trkpt lat="47.36648" lon="0.69662">
        <ele>89</ele>
        <time>2026-09-04T07:58:11.046Z</time>
      </trkpt>
      <trkpt lat="47.36655" lon="0.69671">
        <ele>89</ele>
        <time>2026-09-04T07:58:18.031Z</time>
      </trkpt>
      <trkpt lat="47.36663" lon="0.69678">
        <ele>89</ele>
        <time>2026-09-04T07:58:24.039Z</time>
      </trkpt>
      <trkpt lat="47.36672" lon="0.69686">
        <ele>90</ele>
        <time>2026-09-04T07:58:31.081Z</time>
      </trkpt>
      <trkpt lat="47.36681" lon="0.6969">
        <ele>91</ele>
        <time>2026-09-04T07:58:38.034Z</time>
      </trkpt>
      <trkpt lat="47.36692" lon="0.69692">
        <ele>92</ele>
        <time>2026-09-04T07:58:45.044Z</time>
      </trkpt>
      <trkpt lat="47.36702" lon="0.69693">
        <ele>92</ele>
        <time>2026-09-04T07:58:52.030Z</time>
      </trkpt>
      <trkpt lat="47.36711" lon="0.69692">
        <ele>92</ele>
        <time>2026-09-04T07:58:59.040Z</time>
      </trkpt>
      <trkpt lat="47.3672" lon="0.69688">
        <ele>92</ele>
        <time>2026-09-04T07:59:05.037Z</time>
      </trkpt>
      <trkpt lat="47.36728" lon="0.6968">
        <ele>92</ele>
        <time>2026-09-04T07:59:11.037Z</time>
      </trkpt>
      <trkpt lat="47.36735" lon="0.69669">
        <ele>91</ele>
        <time>2026-09-04T07:59:17.031Z</time>
      </trkpt>
      <trkpt lat="47.36742" lon="0.69658">
        <ele>90</ele>
        <time>2026-09-04T07:59:23.093Z</time>
      </trkpt>
      <trkpt lat="47.36747" lon="0.69645">
        <ele>90</ele>
        <time>2026-09-04T07:59:30.032Z</time>
      </trkpt>
      <trkpt lat="47.36752" lon="0.69632">
        <ele>90</ele>
        <time>2026-09-04T07:59:36.042Z</time>
      </trkpt>
      <trkpt lat="47.36759" lon="0.69622">
        <ele>90</ele>
        <time>2026-09-04T07:59:42.032Z</time>
      </trkpt>
      <trkpt lat="47.36768" lon="0.69614">
        <ele>91</ele>
        <time>2026-09-04T07:59:49.032Z</time>
      </trkpt>
      <trkpt lat="47.36777" lon="0.69609">
        <ele>92</ele>
        <time>2026-09-04T07:59:56.037Z</time>
      </trkpt>
      <trkpt lat="47.36787" lon="0.69608">
        <ele>93</ele>
        <time>2026-09-04T08:00:04.109Z</time>
      </trkpt>
      <trkpt lat="47.36797" lon="0.6961">
        <ele>94</ele>
        <time>2026-09-04T08:00:10.097Z</time>
      </trkpt>
      <trkpt lat="47.36807" lon="0.69613">
        <ele>94</ele>
        <time>2026-09-04T08:00:18.032Z</time>
      </trkpt>
      <trkpt lat="47.36817" lon="0.69614">
        <ele>95</ele>
        <time>2026-09-04T08:00:25.024Z</time>
      </trkpt>
      <trkpt lat="47.36825" lon="0.69616">
        <ele>95</ele>
        <time>2026-09-04T08:00:31.032Z</time>
      </trkpt>
      <trkpt lat="47.36833" lon="0.69623">
        <ele>95</ele>
        <time>2026-09-04T08:00:37.033Z</time>
      </trkpt>
      <trkpt lat="47.36839" lon="0.69635">
        <ele>95</ele>
        <time>2026-09-04T08:00:44.036Z</time>
      </trkpt>
      <trkpt lat="47.36845" lon="0.69646">
        <ele>95</ele>
        <time>2026-09-04T08:00:50.036Z</time>
      </trkpt>
      <trkpt lat="47.36853" lon="0.69655">
        <ele>95</ele>
        <time>2026-09-04T08:00:57.093Z</time>
      </trkpt>
      <trkpt lat="47.36863" lon="0.69653">
        <ele>95</ele>
        <time>2026-09-04T08:01:04.039Z</time>
      </trkpt>
      <trkpt lat="47.36872" lon="0.69652">
        <ele>96</ele>
        <time>2026-09-04T08:01:11.034Z</time>
      </trkpt>
      <trkpt lat="47.36881" lon="0.69647">
        <ele>95</ele>
        <time>2026-09-04T08:01:18.031Z</time>
      </trkpt>
      <trkpt lat="47.36889" lon="0.69652">
        <ele>95</ele>
        <time>2026-09-04T08:01:27.090Z</time>
      </trkpt>
      <trkpt lat="47.36892" lon="0.69666">
        <ele>95</ele>
        <time>2026-09-04T08:01:34.023Z</time>
      </trkpt>
      <trkpt lat="47.36897" lon="0.6968">
        <ele>95</ele>
        <time>2026-09-04T08:01:41.027Z</time>
      </trkpt>
      <trkpt lat="47.36901" lon="0.69693">
        <ele>94</ele>
        <time>2026-09-04T08:01:48.023Z</time>
      </trkpt>
      <trkpt lat="47.3691" lon="0.69694">
        <ele>94</ele>
        <time>2026-09-04T08:01:57.075Z</time>
      </trkpt>
      <trkpt lat="47.36919" lon="0.69687">
        <ele>94</ele>
        <time>2026-09-04T08:02:08.078Z</time>
      </trkpt>
      <trkpt lat="47.36926" lon="0.69695">
        <ele>96</ele>
        <time>2026-09-04T08:02:20.082Z</time>
      </trkpt>
      <trkpt lat="47.36935" lon="0.697">
        <ele>97</ele>
        <time>2026-09-04T08:02:33.030Z</time>
      </trkpt>
      <trkpt lat="47.36941" lon="0.6971">
        <ele>98</ele>
        <time>2026-09-04T08:02:46.034Z</time>
      </trkpt>
      <trkpt lat="47.36943" lon="0.69724">
        <ele>98</ele>
        <time>2026-09-04T08:02:54.035Z</time>
      </trkpt>
      <trkpt lat="47.36941" lon="0.69738">
        <ele>98</ele>
        <time>2026-09-04T08:02:58.032Z</time>
      </trkpt>
      <trkpt lat="47.36935" lon="0.69748">
        <ele>97</ele>
        <time>2026-09-04T08:03:13.035Z</time>
      </trkpt>
      <trkpt lat="47.36944" lon="0.69753">
        <ele>92</ele>
        <time>2026-09-04T08:03:46.032Z</time>
      </trkpt>
      <trkpt lat="47.36947" lon="0.69757">
        <ele>92</ele>
        <time>2026-09-04T08:03:53.032Z</time>
      </trkpt>
      <trkpt lat="47.36944" lon="0.69758">
        <ele>94</ele>
        <time>2026-09-04T08:04:25.011Z</time>
      </trkpt>
      <trkpt lat="47.36944" lon="0.69758">
        <ele>94</ele>
        <time>2026-09-04T08:04:30.029Z</time>
      </trkpt>
      <trkpt lat="47.36944" lon="0.69758">
        <ele>94</ele>
        <time>2026-09-04T08:04:30.622Z</time>
      </trkpt>
      <trkpt lat="47.36942" lon="0.69756">
        <ele>91</ele>
        <time>2026-09-04T08:07:48.094Z</time>
      </trkpt>
      <trkpt lat="47.36942" lon="0.69756">
        <ele>91</ele>
        <time>2026-09-04T08:07:49.034Z</time>
      </trkpt>
      <trkpt lat="47.36944" lon="0.6977">
        <ele>91</ele>
        <time>2026-09-04T08:07:59.027Z</time>
      </trkpt>
      <trkpt lat="47.36946" lon="0.69784">
        <ele>91</ele>
        <time>2026-09-04T08:08:07.035Z</time>
      </trkpt>
      <trkpt lat="47.36948" lon="0.69799">
        <ele>91</ele>
        <time>2026-09-04T08:08:14.043Z</time>
      </trkpt>
      <trkpt lat="47.36948" lon="0.69813">
        <ele>91</ele>
        <time>2026-09-04T08:08:21.045Z</time>
      </trkpt>
      <trkpt lat="47.36952" lon="0.69826">
        <ele>91</ele>
        <time>2026-09-04T08:08:28.038Z</time>
      </trkpt>
      <trkpt lat="47.36954" lon="0.6984">
        <ele>91</ele>
        <time>2026-09-04T08:08:35.037Z</time>
      </trkpt>
      <trkpt lat="47.36957" lon="0.69853">
        <ele>91</ele>
        <time>2026-09-04T08:08:41.036Z</time>
      </trkpt>
      <trkpt lat="47.36961" lon="0.69866">
        <ele>92</ele>
        <time>2026-09-04T08:08:48.054Z</time>
      </trkpt>
      <trkpt lat="47.36961" lon="0.6988">
        <ele>93</ele>
        <time>2026-09-04T08:08:55.079Z</time>
      </trkpt>
      <trkpt lat="47.36961" lon="0.69894">
        <ele>94</ele>
        <time>2026-09-04T08:09:02.040Z</time>
      </trkpt>
      <trkpt lat="47.36961" lon="0.69909">
        <ele>95</ele>
        <time>2026-09-04T08:09:10.033Z</time>
      </trkpt>
      <trkpt lat="47.36961" lon="0.69923">
        <ele>95</ele>
        <time>2026-09-04T08:09:17.035Z</time>
      </trkpt>
      <trkpt lat="47.36962" lon="0.69937">
        <ele>95</ele>
        <time>2026-09-04T08:09:24.036Z</time>
      </trkpt>
      <trkpt lat="47.36965" lon="0.69949">
        <ele>95</ele>
        <time>2026-09-04T08:09:31.032Z</time>
      </trkpt>
      <trkpt lat="47.36965" lon="0.69964">
        <ele>95</ele>
        <time>2026-09-04T08:09:38.034Z</time>
      </trkpt>
      <trkpt lat="47.36967" lon="0.69978">
        <ele>95</ele>
        <time>2026-09-04T08:09:46.086Z</time>
      </trkpt>
      <trkpt lat="47.36967" lon="0.69992">
        <ele>94</ele>
        <time>2026-09-04T08:09:53.035Z</time>
      </trkpt>
      <trkpt lat="47.36968" lon="0.70006">
        <ele>94</ele>
        <time>2026-09-04T08:10:00.036Z</time>
      </trkpt>
      <trkpt lat="47.36969" lon="0.70019">
        <ele>95</ele>
        <time>2026-09-04T08:10:07.032Z</time>
      </trkpt>
      <trkpt lat="47.36971" lon="0.70034">
        <ele>95</ele>
        <time>2026-09-04T08:10:14.028Z</time>
      </trkpt>
      <trkpt lat="47.36971" lon="0.70047">
        <ele>95</ele>
        <time>2026-09-04T08:10:21.033Z</time>
      </trkpt>
      <trkpt lat="47.36973" lon="0.70061">
        <ele>96</ele>
        <time>2026-09-04T08:10:29.033Z</time>
      </trkpt>
      <trkpt lat="47.36976" lon="0.70074">
        <ele>96</ele>
        <time>2026-09-04T08:10:36.030Z</time>
      </trkpt>
      <trkpt lat="47.36977" lon="0.70088">
        <ele>97</ele>
        <time>2026-09-04T08:10:43.032Z</time>
      </trkpt>
      <trkpt lat="47.36976" lon="0.70101">
        <ele>97</ele>
        <time>2026-09-04T08:10:50.029Z</time>
      </trkpt>
      <trkpt lat="47.36978" lon="0.70114">
        <ele>97</ele>
        <time>2026-09-04T08:10:57.029Z</time>
      </trkpt>
      <trkpt lat="47.36979" lon="0.70128">
        <ele>98</ele>
        <time>2026-09-04T08:11:04.092Z</time>
      </trkpt>
      <trkpt lat="47.36981" lon="0.70142">
        <ele>98</ele>
        <time>2026-09-04T08:11:12.037Z</time>
      </trkpt>
      <trkpt lat="47.36981" lon="0.70156">
        <ele>99</ele>
        <time>2026-09-04T08:11:19.035Z</time>
      </trkpt>
      <trkpt lat="47.36978" lon="0.7017">
        <ele>99</ele>
        <time>2026-09-04T08:11:26.029Z</time>
      </trkpt>
      <trkpt lat="47.36978" lon="0.70183">
        <ele>100</ele>
        <time>2026-09-04T08:11:34.038Z</time>
      </trkpt>
      <trkpt lat="47.36976" lon="0.70198">
        <ele>100</ele>
        <time>2026-09-04T08:11:41.103Z</time>
      </trkpt>
      <trkpt lat="47.36976" lon="0.70212">
        <ele>100</ele>
        <time>2026-09-04T08:11:48.036Z</time>
      </trkpt>
      <trkpt lat="47.36976" lon="0.70226">
        <ele>101</ele>
        <time>2026-09-04T08:11:55.026Z</time>
      </trkpt>
      <trkpt lat="47.36977" lon="0.7024">
        <ele>101</ele>
        <time>2026-09-04T08:12:02.033Z</time>
      </trkpt>
      <trkpt lat="47.36979" lon="0.70254">
        <ele>100</ele>
        <time>2026-09-04T08:12:09.010Z</time>
      </trkpt>
      <trkpt lat="47.36978" lon="0.70268">
        <ele>100</ele>
        <time>2026-09-04T08:12:16.084Z</time>
      </trkpt>
      <trkpt lat="47.36977" lon="0.70283">
        <ele>100</ele>
        <time>2026-09-04T08:12:23.034Z</time>
      </trkpt>
      <trkpt lat="47.36976" lon="0.70296">
        <ele>100</ele>
        <time>2026-09-04T08:12:28.080Z</time>
      </trkpt>
      <trkpt lat="47.36976" lon="0.7031">
        <ele>100</ele>
        <time>2026-09-04T08:12:35.047Z</time>
      </trkpt>
      <trkpt lat="47.36976" lon="0.70324">
        <ele>99</ele>
        <time>2026-09-04T08:12:42.027Z</time>
      </trkpt>
      <trkpt lat="47.36977" lon="0.70338">
        <ele>99</ele>
        <time>2026-09-04T08:12:49.035Z</time>
      </trkpt>
      <trkpt lat="47.36975" lon="0.70352">
        <ele>99</ele>
        <time>2026-09-04T08:12:56.032Z</time>
      </trkpt>
      <trkpt lat="47.36971" lon="0.70366">
        <ele>98</ele>
        <time>2026-09-04T08:13:03.097Z</time>
      </trkpt>
      <trkpt lat="47.36968" lon="0.7038">
        <ele>97</ele>
        <time>2026-09-04T08:13:10.032Z</time>
      </trkpt>
      <trkpt lat="47.36965" lon="0.70394">
        <ele>95</ele>
        <time>2026-09-04T08:13:17.037Z</time>
      </trkpt>
      <trkpt lat="47.36965" lon="0.70408">
        <ele>94</ele>
        <time>2026-09-04T08:13:24.042Z</time>
      </trkpt>
      <trkpt lat="47.36966" lon="0.70424">
        <ele>92</ele>
        <time>2026-09-04T08:13:31.058Z</time>
      </trkpt>
      <trkpt lat="47.36969" lon="0.70438">
        <ele>90</ele>
        <time>2026-09-04T08:13:38.034Z</time>
      </trkpt>
      <trkpt lat="47.36971" lon="0.70453">
        <ele>88</ele>
        <time>2026-09-04T08:13:45.032Z</time>
      </trkpt>
      <trkpt lat="47.36971" lon="0.70467">
        <ele>88</ele>
        <time>2026-09-04T08:13:52.032Z</time>
      </trkpt>
      <trkpt lat="47.36971" lon="0.70482">
        <ele>89</ele>
        <time>2026-09-04T08:13:59.019Z</time>
      </trkpt>
      <trkpt lat="47.3697" lon="0.70497">
        <ele>90</ele>
        <time>2026-09-04T08:14:06.035Z</time>
      </trkpt>
      <trkpt lat="47.36971" lon="0.7051">
        <ele>91</ele>
        <time>2026-09-04T08:14:12.034Z</time>
      </trkpt>
      <trkpt lat="47.36971" lon="0.70525">
        <ele>92</ele>
        <time>2026-09-04T08:14:19.032Z</time>
      </trkpt>
      <trkpt lat="47.36971" lon="0.70538">
        <ele>93</ele>
        <time>2026-09-04T08:14:25.036Z</time>
      </trkpt>
      <trkpt lat="47.36971" lon="0.70553">
        <ele>94</ele>
        <time>2026-09-04T08:14:32.012Z</time>
      </trkpt>
      <trkpt lat="47.36972" lon="0.70567">
        <ele>95</ele>
        <time>2026-09-04T08:14:39.033Z</time>
      </trkpt>
      <trkpt lat="47.36972" lon="0.70582">
        <ele>96</ele>
        <time>2026-09-04T08:14:46.024Z</time>
      </trkpt>
      <trkpt lat="47.36973" lon="0.70596">
        <ele>96</ele>
        <time>2026-09-04T08:14:53.041Z</time>
      </trkpt>
      <trkpt lat="47.36972" lon="0.70611">
        <ele>96</ele>
        <time>2026-09-04T08:15:00.013Z</time>
      </trkpt>
      <trkpt lat="47.36971" lon="0.70626">
        <ele>96</ele>
        <time>2026-09-04T08:15:07.081Z</time>
      </trkpt>
      <trkpt lat="47.36973" lon="0.7064">
        <ele>96</ele>
        <time>2026-09-04T08:15:14.030Z</time>
      </trkpt>
      <trkpt lat="47.36974" lon="0.70654">
        <ele>96</ele>
        <time>2026-09-04T08:15:21.031Z</time>
      </trkpt>
      <trkpt lat="47.36976" lon="0.70669">
        <ele>95</ele>
        <time>2026-09-04T08:15:28.032Z</time>
      </trkpt>
      <trkpt lat="47.36978" lon="0.70683">
        <ele>95</ele>
        <time>2026-09-04T08:15:35.033Z</time>
      </trkpt>
      <trkpt lat="47.3698" lon="0.70696">
        <ele>95</ele>
        <time>2026-09-04T08:15:42.081Z</time>
      </trkpt>
      <trkpt lat="47.36982" lon="0.7071">
        <ele>95</ele>
        <time>2026-09-04T08:15:49.043Z</time>
      </trkpt>
      <trkpt lat="47.36984" lon="0.70724">
        <ele>96</ele>
        <time>2026-09-04T08:15:56.034Z</time>
      </trkpt>
      <trkpt lat="47.36987" lon="0.70738">
        <ele>96</ele>
        <time>2026-09-04T08:16:03.033Z</time>
      </trkpt>
      <trkpt lat="47.36989" lon="0.70751">
        <ele>97</ele>
        <time>2026-09-04T08:16:10.034Z</time>
      </trkpt>
      <trkpt lat="47.3699" lon="0.70765">
        <ele>97</ele>
        <time>2026-09-04T08:16:17.037Z</time>
      </trkpt>
      <trkpt lat="47.36993" lon="0.70778">
        <ele>96</ele>
        <time>2026-09-04T08:16:24.114Z</time>
      </trkpt>
      <trkpt lat="47.36995" lon="0.70792">
        <ele>96</ele>
        <time>2026-09-04T08:16:31.033Z</time>
      </trkpt>
      <trkpt lat="47.36993" lon="0.70806">
        <ele>96</ele>
        <time>2026-09-04T08:16:39.035Z</time>
      </trkpt>
      <trkpt lat="47.36984" lon="0.70808">
        <ele>96</ele>
        <time>2026-09-04T08:16:49.024Z</time>
      </trkpt>
      <trkpt lat="47.3698" lon="0.7082">
        <ele>96</ele>
        <time>2026-09-04T08:17:06.095Z</time>
      </trkpt>
      <trkpt lat="47.36985" lon="0.70832">
        <ele>97</ele>
        <time>2026-09-04T08:17:13.034Z</time>
      </trkpt>
      <trkpt lat="47.3699" lon="0.70844">
        <ele>97</ele>
        <time>2026-09-04T08:17:19.034Z</time>
      </trkpt>
      <trkpt lat="47.36994" lon="0.70856">
        <ele>97</ele>
        <time>2026-09-04T08:17:26.048Z</time>
      </trkpt>
      <trkpt lat="47.36998" lon="0.70868">
        <ele>98</ele>
        <time>2026-09-04T08:17:32.036Z</time>
      </trkpt>
      <trkpt lat="47.37002" lon="0.70883">
        <ele>98</ele>
        <time>2026-09-04T08:17:39.034Z</time>
      </trkpt>
      <trkpt lat="47.37006" lon="0.70896">
        <ele>99</ele>
        <time>2026-09-04T08:17:45.032Z</time>
      </trkpt>
      <trkpt lat="47.37011" lon="0.70909">
        <ele>99</ele>
        <time>2026-09-04T08:17:52.101Z</time>
      </trkpt>
      <trkpt lat="47.37016" lon="0.70922">
        <ele>100</ele>
        <time>2026-09-04T08:17:59.036Z</time>
      </trkpt>
      <trkpt lat="47.37021" lon="0.70935">
        <ele>101</ele>
        <time>2026-09-04T08:18:06.035Z</time>
      </trkpt>
      <trkpt lat="47.37026" lon="0.70948">
        <ele>101</ele>
        <time>2026-09-04T08:18:13.046Z</time>
      </trkpt>
      <trkpt lat="47.37029" lon="0.70961">
        <ele>100</ele>
        <time>2026-09-04T08:18:20.081Z</time>
      </trkpt>
      <trkpt lat="47.37033" lon="0.70974">
        <ele>99</ele>
        <time>2026-09-04T08:18:27.009Z</time>
      </trkpt>
      <trkpt lat="47.37038" lon="0.70987">
        <ele>99</ele>
        <time>2026-09-04T08:18:34.037Z</time>
      </trkpt>
      <trkpt lat="47.37042" lon="0.71001">
        <ele>98</ele>
        <time>2026-09-04T08:18:41.034Z</time>
      </trkpt>
      <trkpt lat="47.37046" lon="0.71014">
        <ele>98</ele>
        <time>2026-09-04T08:18:48.032Z</time>
      </trkpt>
      <trkpt lat="47.3705" lon="0.71028">
        <ele>98</ele>
        <time>2026-09-04T08:18:55.034Z</time>
      </trkpt>
      <trkpt lat="47.37054" lon="0.71041">
        <ele>98</ele>
        <time>2026-09-04T08:19:03.005Z</time>
      </trkpt>
      <trkpt lat="47.3706" lon="0.71053">
        <ele>98</ele>
        <time>2026-09-04T08:19:10.097Z</time>
      </trkpt>
      <trkpt lat="47.37066" lon="0.71064">
        <ele>98</ele>
        <time>2026-09-04T08:19:17.034Z</time>
      </trkpt>
      <trkpt lat="47.37072" lon="0.71076">
        <ele>98</ele>
        <time>2026-09-04T08:19:24.007Z</time>
      </trkpt>
      <trkpt lat="47.37077" lon="0.71088">
        <ele>98</ele>
        <time>2026-09-04T08:19:31.024Z</time>
      </trkpt>
      <trkpt lat="47.37083" lon="0.711">
        <ele>98</ele>
        <time>2026-09-04T08:19:38.033Z</time>
      </trkpt>
      <trkpt lat="47.3709" lon="0.71112">
        <ele>98</ele>
        <time>2026-09-04T08:19:45.080Z</time>
      </trkpt>
      <trkpt lat="47.37095" lon="0.71125">
        <ele>98</ele>
        <time>2026-09-04T08:19:52.036Z</time>
      </trkpt>
      <trkpt lat="47.37097" lon="0.7114">
        <ele>99</ele>
        <time>2026-09-04T08:19:59.033Z</time>
      </trkpt>
      <trkpt lat="47.37101" lon="0.71153">
        <ele>98</ele>
        <time>2026-09-04T08:20:06.038Z</time>
      </trkpt>
      <trkpt lat="47.37106" lon="0.71165">
        <ele>98</ele>
        <time>2026-09-04T08:20:13.032Z</time>
      </trkpt>
      <trkpt lat="47.37111" lon="0.71178">
        <ele>98</ele>
        <time>2026-09-04T08:20:20.011Z</time>
      </trkpt>
      <trkpt lat="47.37117" lon="0.71191">
        <ele>99</ele>
        <time>2026-09-04T08:20:27.072Z</time>
      </trkpt>
      <trkpt lat="47.37123" lon="0.71203">
        <ele>99</ele>
        <time>2026-09-04T08:20:34.007Z</time>
      </trkpt>
      <trkpt lat="47.37127" lon="0.71216">
        <ele>100</ele>
        <time>2026-09-04T08:20:41.009Z</time>
      </trkpt>
      <trkpt lat="47.37131" lon="0.71228">
        <ele>100</ele>
        <time>2026-09-04T08:20:48.008Z</time>
      </trkpt>
      <trkpt lat="47.37137" lon="0.71239">
        <ele>101</ele>
        <time>2026-09-04T08:20:55.011Z</time>
      </trkpt>
      <trkpt lat="47.37141" lon="0.71252">
        <ele>101</ele>
        <time>2026-09-04T08:21:02.009Z</time>
      </trkpt>
      <trkpt lat="47.37145" lon="0.71264">
        <ele>101</ele>
        <time>2026-09-04T08:21:09.012Z</time>
      </trkpt>
      <trkpt lat="47.3715" lon="0.71277">
        <ele>101</ele>
        <time>2026-09-04T08:21:16.075Z</time>
      </trkpt>
      <trkpt lat="47.37155" lon="0.71291">
        <ele>100</ele>
        <time>2026-09-04T08:21:23.013Z</time>
      </trkpt>
      <trkpt lat="47.3716" lon="0.71303">
        <ele>100</ele>
        <time>2026-09-04T08:21:30.010Z</time>
      </trkpt>
      <trkpt lat="47.37163" lon="0.71318">
        <ele>99</ele>
        <time>2026-09-04T08:21:37.011Z</time>
      </trkpt>
      <trkpt lat="47.37167" lon="0.71331">
        <ele>99</ele>
        <time>2026-09-04T08:21:44.011Z</time>
      </trkpt>
      <trkpt lat="47.37171" lon="0.71343">
        <ele>99</ele>
        <time>2026-09-04T08:21:51.076Z</time>
      </trkpt>
      <trkpt lat="47.37177" lon="0.71355">
        <ele>98</ele>
        <time>2026-09-04T08:21:58.020Z</time>
      </trkpt>
      <trkpt lat="47.37182" lon="0.71367">
        <ele>98</ele>
        <time>2026-09-04T08:22:05.024Z</time>
      </trkpt>
      <trkpt lat="47.37185" lon="0.7138">
        <ele>98</ele>
        <time>2026-09-04T08:22:13.042Z</time>
      </trkpt>
      <trkpt lat="47.37191" lon="0.71392">
        <ele>98</ele>
        <time>2026-09-04T08:22:20.091Z</time>
      </trkpt>
      <trkpt lat="47.37193" lon="0.71405">
        <ele>98</ele>
        <time>2026-09-04T08:22:27.042Z</time>
      </trkpt>
      <trkpt lat="47.37197" lon="0.71419">
        <ele>98</ele>
        <time>2026-09-04T08:22:35.041Z</time>
      </trkpt>
      <trkpt lat="47.37199" lon="0.71433">
        <ele>99</ele>
        <time>2026-09-04T08:22:43.041Z</time>
      </trkpt>
      <trkpt lat="47.37204" lon="0.71445">
        <ele>98</ele>
        <time>2026-09-04T08:22:50.075Z</time>
      </trkpt>
      <trkpt lat="47.37207" lon="0.71458">
        <ele>98</ele>
        <time>2026-09-04T08:22:57.036Z</time>
      </trkpt>
      <trkpt lat="47.3721" lon="0.71472">
        <ele>98</ele>
        <time>2026-09-04T08:23:05.037Z</time>
      </trkpt>
      <trkpt lat="47.37214" lon="0.71485">
        <ele>97</ele>
        <time>2026-09-04T08:23:12.040Z</time>
      </trkpt>
      <trkpt lat="47.37216" lon="0.71499">
        <ele>96</ele>
        <time>2026-09-04T08:23:19.089Z</time>
      </trkpt>
      <trkpt lat="47.37216" lon="0.71514">
        <ele>96</ele>
        <time>2026-09-04T08:23:26.015Z</time>
      </trkpt>
      <trkpt lat="47.37216" lon="0.71528">
        <ele>95</ele>
        <time>2026-09-04T08:23:33.034Z</time>
      </trkpt>
      <trkpt lat="47.37215" lon="0.71542">
        <ele>95</ele>
        <time>2026-09-04T08:23:40.041Z</time>
      </trkpt>
      <trkpt lat="47.37217" lon="0.71556">
        <ele>94</ele>
        <time>2026-09-04T08:23:51.011Z</time>
      </trkpt>
      <trkpt lat="47.37213" lon="0.71571">
        <ele>93</ele>
        <time>2026-09-04T08:24:00.095Z</time>
      </trkpt>
      <trkpt lat="47.37214" lon="0.71585">
        <ele>93</ele>
        <time>2026-09-04T08:24:04.031Z</time>
      </trkpt>
      <trkpt lat="47.37215" lon="0.71599">
        <ele>92</ele>
        <time>2026-09-04T08:24:09.035Z</time>
      </trkpt>
      <trkpt lat="47.37216" lon="0.71614">
        <ele>92</ele>
        <time>2026-09-04T08:24:14.007Z</time>
      </trkpt>
      <trkpt lat="47.37217" lon="0.71627">
        <ele>92</ele>
        <time>2026-09-04T08:24:21.040Z</time>
      </trkpt>
      <trkpt lat="47.37219" lon="0.7164">
        <ele>93</ele>
        <time>2026-09-04T08:24:28.102Z</time>
      </trkpt>
      <trkpt lat="47.37216" lon="0.71654">
        <ele>93</ele>
        <time>2026-09-04T08:24:34.083Z</time>
      </trkpt>
      <trkpt lat="47.37215" lon="0.71667">
        <ele>93</ele>
        <time>2026-09-04T08:24:40.024Z</time>
      </trkpt>
      <trkpt lat="47.37214" lon="0.71682">
        <ele>94</ele>
        <time>2026-09-04T08:24:47.037Z</time>
      </trkpt>
      <trkpt lat="47.37214" lon="0.71696">
        <ele>95</ele>
        <time>2026-09-04T08:24:54.024Z</time>
      </trkpt>
      <trkpt lat="47.37213" lon="0.71711">
        <ele>95</ele>
        <time>2026-09-04T08:25:01.034Z</time>
      </trkpt>
      <trkpt lat="47.3721" lon="0.71724">
        <ele>94</ele>
        <time>2026-09-04T08:25:08.030Z</time>
      </trkpt>
      <trkpt lat="47.37207" lon="0.71739">
        <ele>94</ele>
        <time>2026-09-04T08:25:15.087Z</time>
      </trkpt>
      <trkpt lat="47.37204" lon="0.71726">
        <ele>93</ele>
        <time>2026-09-04T08:25:31.032Z</time>
      </trkpt>
      <trkpt lat="47.3721" lon="0.71714">
        <ele>92</ele>
        <time>2026-09-04T08:25:43.026Z</time>
      </trkpt>
      <trkpt lat="47.37217" lon="0.71706">
        <ele>92</ele>
        <time>2026-09-04T08:25:55.027Z</time>
      </trkpt>
      <trkpt lat="47.37219" lon="0.71693">
        <ele>91</ele>
        <time>2026-09-04T08:26:05.035Z</time>
      </trkpt>
      <trkpt lat="47.37226" lon="0.71704">
        <ele>89</ele>
        <time>2026-09-04T08:26:23.035Z</time>
      </trkpt>
      <trkpt lat="47.3723" lon="0.71717">
        <ele>84</ele>
        <time>2026-09-04T08:26:37.040Z</time>
      </trkpt>
      <trkpt lat="47.37237" lon="0.71725">
        <ele>80</ele>
        <time>2026-09-04T08:26:47.028Z</time>
      </trkpt>
      <trkpt lat="47.37242" lon="0.71738">
        <ele>76</ele>
        <time>2026-09-04T08:26:58.027Z</time>
      </trkpt>
      <trkpt lat="47.37234" lon="0.71744">
        <ele>71</ele>
        <time>2026-09-04T08:27:09.025Z</time>
      </trkpt>
      <trkpt lat="47.37233" lon="0.7173">
        <ele>67</ele>
        <time>2026-09-04T08:27:16.031Z</time>
      </trkpt>
      <trkpt lat="47.37237" lon="0.71718">
        <ele>63</ele>
        <time>2026-09-04T08:27:22.021Z</time>
      </trkpt>
      <trkpt lat="47.37239" lon="0.71704">
        <ele>60</ele>
        <time>2026-09-04T08:27:27.034Z</time>
      </trkpt>
      <trkpt lat="47.37242" lon="0.71689">
        <ele>58</ele>
        <time>2026-09-04T08:27:32.034Z</time>
      </trkpt>
      <trkpt lat="47.37244" lon="0.71674">
        <ele>55</ele>
        <time>2026-09-04T08:27:37.027Z</time>
      </trkpt>
      <trkpt lat="47.37248" lon="0.71661">
        <ele>51</ele>
        <time>2026-09-04T08:27:43.007Z</time>
      </trkpt>
      <trkpt lat="47.37251" lon="0.71648">
        <ele>50</ele>
        <time>2026-09-04T08:27:47.089Z</time>
      </trkpt>
      <trkpt lat="47.37256" lon="0.71635">
        <ele>49</ele>
        <time>2026-09-04T08:27:53.089Z</time>
      </trkpt>
      <trkpt lat="47.37261" lon="0.71624">
        <ele>48</ele>
        <time>2026-09-04T08:28:01.030Z</time>
      </trkpt>
      <trkpt lat="47.37267" lon="0.71614">
        <ele>47</ele>
        <time>2026-09-04T08:28:10.030Z</time>
      </trkpt>
      <trkpt lat="47.37277" lon="0.71609">
        <ele>45</ele>
        <time>2026-09-04T08:28:17.028Z</time>
      </trkpt>
      <trkpt lat="47.37286" lon="0.7161">
        <ele>44</ele>
        <time>2026-09-04T08:28:23.013Z</time>
      </trkpt>
      <trkpt lat="47.37295" lon="0.71613">
        <ele>43</ele>
        <time>2026-09-04T08:28:29.012Z</time>
      </trkpt>
      <trkpt lat="47.37305" lon="0.71616">
        <ele>41</ele>
        <time>2026-09-04T08:28:35.036Z</time>
      </trkpt>
      <trkpt lat="47.37314" lon="0.71618">
        <ele>39</ele>
        <time>2026-09-04T08:28:41.040Z</time>
      </trkpt>
      <trkpt lat="47.37325" lon="0.71619">
        <ele>38</ele>
        <time>2026-09-04T08:28:47.026Z</time>
      </trkpt>
      <trkpt lat="47.37335" lon="0.7162">
        <ele>37</ele>
        <time>2026-09-04T08:28:53.030Z</time>
      </trkpt>
      <trkpt lat="47.37344" lon="0.71621">
        <ele>37</ele>
        <time>2026-09-04T08:28:58.043Z</time>
      </trkpt>
      <trkpt lat="47.37355" lon="0.71622">
        <ele>37</ele>
        <time>2026-09-04T08:29:04.006Z</time>
      </trkpt>
      <trkpt lat="47.37365" lon="0.71622">
        <ele>38</ele>
        <time>2026-09-04T08:29:10.052Z</time>
      </trkpt>
      <trkpt lat="47.37375" lon="0.71621">
        <ele>39</ele>
        <time>2026-09-04T08:29:15.030Z</time>
      </trkpt>
      <trkpt lat="47.37384" lon="0.71621">
        <ele>41</ele>
        <time>2026-09-04T08:29:20.034Z</time>
      </trkpt>
      <trkpt lat="47.37391" lon="0.71613">
        <ele>45</ele>
        <time>2026-09-04T08:29:28.080Z</time>
      </trkpt>
      <trkpt lat="47.374" lon="0.71618">
        <ele>48</ele>
        <time>2026-09-04T08:29:34.088Z</time>
      </trkpt>
      <trkpt lat="47.37409" lon="0.71622">
        <ele>50</ele>
        <time>2026-09-04T08:29:39.032Z</time>
      </trkpt>
      <trkpt lat="47.37419" lon="0.71625">
        <ele>54</ele>
        <time>2026-09-04T08:29:45.017Z</time>
      </trkpt>
      <trkpt lat="47.3743" lon="0.71629">
        <ele>57</ele>
        <time>2026-09-04T08:29:51.036Z</time>
      </trkpt>
      <trkpt lat="47.37439" lon="0.71632">
        <ele>61</ele>
        <time>2026-09-04T08:29:57.030Z</time>
      </trkpt>
      <trkpt lat="47.37449" lon="0.71636">
        <ele>65</ele>
        <time>2026-09-04T08:30:04.092Z</time>
      </trkpt>
      <trkpt lat="47.37458" lon="0.71636">
        <ele>68</ele>
        <time>2026-09-04T08:30:09.018Z</time>
      </trkpt>
      <trkpt lat="47.37467" lon="0.71629">
        <ele>73</ele>
        <time>2026-09-04T08:30:17.032Z</time>
      </trkpt>
      <trkpt lat="47.37476" lon="0.71626">
        <ele>81</ele>
        <time>2026-09-04T08:30:30.030Z</time>
      </trkpt>
      <trkpt lat="47.37486" lon="0.71626">
        <ele>86</ele>
        <time>2026-09-04T08:30:39.044Z</time>
      </trkpt>
      <trkpt lat="47.37495" lon="0.71627">
        <ele>89</ele>
        <time>2026-09-04T08:30:46.037Z</time>
      </trkpt>
      <trkpt lat="47.37504" lon="0.71629">
        <ele>91</ele>
        <time>2026-09-04T08:30:53.026Z</time>
      </trkpt>
      <trkpt lat="47.37513" lon="0.71635">
        <ele>92</ele>
        <time>2026-09-04T08:31:01.030Z</time>
      </trkpt>
      <trkpt lat="47.37511" lon="0.71649">
        <ele>93</ele>
        <time>2026-09-04T08:31:13.032Z</time>
      </trkpt>
      <trkpt lat="47.37505" lon="0.7166">
        <ele>93</ele>
        <time>2026-09-04T08:31:21.033Z</time>
      </trkpt>
      <trkpt lat="47.37499" lon="0.71671">
        <ele>93</ele>
        <time>2026-09-04T08:31:29.020Z</time>
      </trkpt>
      <trkpt lat="47.37494" lon="0.71684">
        <ele>94</ele>
        <time>2026-09-04T08:31:38.021Z</time>
      </trkpt>
      <trkpt lat="47.37494" lon="0.71698">
        <ele>94</ele>
        <time>2026-09-04T08:31:46.031Z</time>
      </trkpt>
      <trkpt lat="47.37491" lon="0.71696">
        <ele>94</ele>
        <time>2026-09-04T08:31:54.030Z</time>
      </trkpt>
      <trkpt lat="47.37491" lon="0.71696">
        <ele>94</ele>
        <time>2026-09-04T08:32:10.177Z</time>
      </trkpt>
    </trkseg>
  </trk>
</gpx>